sensor_id;sensor_type;location;lat;lon;timestamp;P1;durP1;ratioP1;P2;durP2;ratioP2
2892;SDS011;1456;51.840;12.184;2023-06-10T00:02:16;7.47;;;6.97;;
2892;SDS011;1456;51.840;12.184;2023-06-10T00:04:42;6.90;;;6.73;;
2892;SDS011;1456;51.840;12.184;2023-06-10T00:07:08;8.00;;;7.70;;
2892;SDS011;1456;51.840;12.184;2023-06-10T00:09:35;6.03;;;5.93;;
2892;SDS011;1456;51.840;12.184;2023-06-10T00:12:06;4.97;;;4.87;;
2892;SDS011;1456;51.840;12.184;2023-06-10T00:14:38;9.63;;;9.43;;
2892;SDS011;1456;51.840;12.184;2023-06-10T00:17:06;9.43;;;9.33;;
2892;SDS011;1456;51.840;12.184;2023-06-10T00:19:35;5.53;;;5.43;;
2892;SDS011;1456;51.840;12.184;2023-06-10T00:22:02;4.50;;;4.50;;
2892;SDS011;1456;51.840;12.184;2023-06-10T00:24:30;4.30;;;4.30;;
2892;SDS011;1456;51.840;12.184;2023-06-10T00:26:56;6.47;;;6.17;;
2892;SDS011;1456;51.840;12.184;2023-06-10T00:29:22;4.67;;;4.57;;
2892;SDS011;1456;51.840;12.184;2023-06-10T00:31:48;4.87;;;4.77;;
2892;SDS011;1456;51.840;12.184;2023-06-10T00:34:13;4.40;;;4.30;;
2892;SDS011;1456;51.840;12.184;2023-06-10T00:36:39;4.17;;;4.07;;
2892;SDS011;1456;51.840;12.184;2023-06-10T00:39:05;4.13;;;4.03;;
2892;SDS011;1456;51.840;12.184;2023-06-10T00:41:31;3.90;;;3.80;;
2892;SDS011;1456;51.840;12.184;2023-06-10T00:43:59;4.20;;;4.00;;
2892;SDS011;1456;51.840;12.184;2023-06-10T00:46:24;9.33;;;4.63;;
2892;SDS011;1456;51.840;12.184;2023-06-10T00:48:51;4.03;;;3.93;;
2892;SDS011;1456;51.840;12.184;2023-06-10T00:51:17;3.97;;;3.87;;
2892;SDS011;1456;51.840;12.184;2023-06-10T00:53:44;3.40;;;3.40;;
2892;SDS011;1456;51.840;12.184;2023-06-10T00:56:11;3.30;;;3.30;;
2892;SDS011;1456;51.840;12.184;2023-06-10T00:58:40;7.53;;;5.13;;
2892;SDS011;1456;51.840;12.184;2023-06-10T01:01:06;3.63;;;3.63;;
2892;SDS011;1456;51.840;12.184;2023-06-10T01:03:32;3.63;;;3.47;;
2892;SDS011;1456;51.840;12.184;2023-06-10T01:06:06;3.93;;;3.83;;
2892;SDS011;1456;51.840;12.184;2023-06-10T01:11:43;2.23;;;2.23;;
2892;SDS011;1456;51.840;12.184;2023-06-10T01:14:13;1.93;;;1.93;;
2892;SDS011;1456;51.840;12.184;2023-06-10T01:16:43;1.93;;;1.90;;
2892;SDS011;1456;51.840;12.184;2023-06-10T01:19:11;1.83;;;1.83;;
2892;SDS011;1456;51.840;12.184;2023-06-10T01:21:38;1.90;;;1.90;;
2892;SDS011;1456;51.840;12.184;2023-06-10T01:24:04;2.57;;;2.47;;
2892;SDS011;1456;51.840;12.184;2023-06-10T01:26:33;1.97;;;1.97;;
2892;SDS011;1456;51.840;12.184;2023-06-10T01:29:06;2.50;;;2.50;;
2892;SDS011;1456;51.840;12.184;2023-06-10T01:31:47;2.70;;;2.13;;
2892;SDS011;1456;51.840;12.184;2023-06-10T01:34:17;1.40;;;1.40;;
2892;SDS011;1456;51.840;12.184;2023-06-10T01:36:47;1.80;;;1.70;;
2892;SDS011;1456;51.840;12.184;2023-06-10T01:39:20;1.83;;;1.83;;
2892;SDS011;1456;51.840;12.184;2023-06-10T01:41:48;2.30;;;2.30;;
2892;SDS011;1456;51.840;12.184;2023-06-10T01:44:21;1.67;;;1.67;;
2892;SDS011;1456;51.840;12.184;2023-06-10T01:46:48;1.40;;;1.40;;
2892;SDS011;1456;51.840;12.184;2023-06-10T01:49:14;1.90;;;1.90;;
2892;SDS011;1456;51.840;12.184;2023-06-10T01:51:40;1.47;;;1.47;;
2892;SDS011;1456;51.840;12.184;2023-06-10T01:54:07;1.20;;;1.20;;
2892;SDS011;1456;51.840;12.184;2023-06-10T01:56:33;1.70;;;1.70;;
2892;SDS011;1456;51.840;12.184;2023-06-10T01:58:58;1.47;;;1.47;;
2892;SDS011;1456;51.840;12.184;2023-06-10T02:01:25;1.80;;;1.80;;
2892;SDS011;1456;51.840;12.184;2023-06-10T02:03:51;5.90;;;1.90;;
2892;SDS011;1456;51.840;12.184;2023-06-10T02:06:17;1.20;;;1.20;;
2892;SDS011;1456;51.840;12.184;2023-06-10T02:08:43;1.67;;;1.60;;
2892;SDS011;1456;51.840;12.184;2023-06-10T02:11:10;1.63;;;1.00;;
2892;SDS011;1456;51.840;12.184;2023-06-10T02:13:37;2.40;;;2.13;;
2892;SDS011;1456;51.840;12.184;2023-06-10T02:16:04;0.93;;;0.93;;
2892;SDS011;1456;51.840;12.184;2023-06-10T02:18:30;1.23;;;1.13;;
2892;SDS011;1456;51.840;12.184;2023-06-10T02:20:56;0.93;;;0.93;;
2892;SDS011;1456;51.840;12.184;2023-06-10T02:23:22;0.90;;;0.90;;
2892;SDS011;1456;51.840;12.184;2023-06-10T02:25:48;2.53;;;2.43;;
2892;SDS011;1456;51.840;12.184;2023-06-10T02:28:14;1.50;;;1.50;;
2892;SDS011;1456;51.840;12.184;2023-06-10T02:30:41;0.70;;;0.70;;
2892;SDS011;1456;51.840;12.184;2023-06-10T02:33:07;0.90;;;0.90;;
2892;SDS011;1456;51.840;12.184;2023-06-10T02:35:37;1.10;;;1.10;;
2892;SDS011;1456;51.840;12.184;2023-06-10T02:38:04;1.10;;;0.90;;
2892;SDS011;1456;51.840;12.184;2023-06-10T02:40:29;0.93;;;0.93;;
2892;SDS011;1456;51.840;12.184;2023-06-10T02:42:57;3.40;;;1.30;;
2892;SDS011;1456;51.840;12.184;2023-06-10T02:45:23;2.07;;;1.97;;
2892;SDS011;1456;51.840;12.184;2023-06-10T02:47:49;1.60;;;0.90;;
2892;SDS011;1456;51.840;12.184;2023-06-10T02:50:16;1.57;;;1.07;;
2892;SDS011;1456;51.840;12.184;2023-06-10T02:52:41;1.03;;;1.03;;
2892;SDS011;1456;51.840;12.184;2023-06-10T02:55:07;1.30;;;1.20;;
2892;SDS011;1456;51.840;12.184;2023-06-10T02:57:34;0.50;;;0.50;;
2892;SDS011;1456;51.840;12.184;2023-06-10T03:00:00;0.93;;;0.90;;
2892;SDS011;1456;51.840;12.184;2023-06-10T03:02:30;1.13;;;0.60;;
2892;SDS011;1456;51.840;12.184;2023-06-10T03:04:56;2.87;;;2.37;;
2892;SDS011;1456;51.840;12.184;2023-06-10T03:07:23;0.70;;;0.70;;
2892;SDS011;1456;51.840;12.184;2023-06-10T03:09:49;0.90;;;0.90;;
2892;SDS011;1456;51.840;12.184;2023-06-10T03:12:15;0.83;;;0.83;;
2892;SDS011;1456;51.840;12.184;2023-06-10T03:14:41;0.70;;;0.70;;
2892;SDS011;1456;51.840;12.184;2023-06-10T03:17:08;0.83;;;0.70;;
2892;SDS011;1456;51.840;12.184;2023-06-10T03:19:34;0.77;;;0.77;;
2892;SDS011;1456;51.840;12.184;2023-06-10T03:22:13;1.40;;;1.37;;
2892;SDS011;1456;51.840;12.184;2023-06-10T03:24:40;0.60;;;0.60;;
2892;SDS011;1456;51.840;12.184;2023-06-10T03:27:09;0.77;;;0.77;;
2892;SDS011;1456;51.840;12.184;2023-06-10T03:29:36;1.30;;;1.30;;
2892;SDS011;1456;51.840;12.184;2023-06-10T03:32:03;1.90;;;1.90;;
2892;SDS011;1456;51.840;12.184;2023-06-10T03:34:29;0.77;;;0.70;;
2892;SDS011;1456;51.840;12.184;2023-06-10T03:36:55;1.33;;;0.97;;
2892;SDS011;1456;51.840;12.184;2023-06-10T03:39:21;1.03;;;1.03;;
2892;SDS011;1456;51.840;12.184;2023-06-10T03:41:48;0.70;;;0.70;;
2892;SDS011;1456;51.840;12.184;2023-06-10T03:44:15;1.03;;;0.90;;
2892;SDS011;1456;51.840;12.184;2023-06-10T03:46:41;1.43;;;1.10;;
2892;SDS011;1456;51.840;12.184;2023-06-10T03:49:07;0.87;;;0.87;;
2892;SDS011;1456;51.840;12.184;2023-06-10T03:51:34;0.73;;;0.73;;
2892;SDS011;1456;51.840;12.184;2023-06-10T03:54:00;2.30;;;1.17;;
2892;SDS011;1456;51.840;12.184;2023-06-10T03:56:27;1.40;;;1.30;;
2892;SDS011;1456;51.840;12.184;2023-06-10T03:58:54;0.80;;;0.80;;
2892;SDS011;1456;51.840;12.184;2023-06-10T04:01:20;0.80;;;0.80;;
2892;SDS011;1456;51.840;12.184;2023-06-10T04:03:47;0.70;;;0.70;;
2892;SDS011;1456;51.840;12.184;2023-06-10T04:06:15;0.93;;;0.93;;
2892;SDS011;1456;51.840;12.184;2023-06-10T04:08:41;0.50;;;0.50;;
2892;SDS011;1456;51.840;12.184;2023-06-10T04:11:08;0.73;;;0.73;;
2892;SDS011;1456;51.840;12.184;2023-06-10T04:13:34;0.77;;;0.77;;
2892;SDS011;1456;51.840;12.184;2023-06-10T04:15:59;0.50;;;0.50;;
2892;SDS011;1456;51.840;12.184;2023-06-10T04:18:27;5.40;;;1.37;;
2892;SDS011;1456;51.840;12.184;2023-06-10T04:20:53;0.63;;;0.60;;
2892;SDS011;1456;51.840;12.184;2023-06-10T04:23:19;0.40;;;0.40;;
2892;SDS011;1456;51.840;12.184;2023-06-10T04:25:46;1.87;;;1.77;;
2892;SDS011;1456;51.840;12.184;2023-06-10T04:28:11;0.93;;;0.93;;
2892;SDS011;1456;51.840;12.184;2023-06-10T04:30:37;0.80;;;0.70;;
2892;SDS011;1456;51.840;12.184;2023-06-10T04:33:03;0.70;;;0.70;;
2892;SDS011;1456;51.840;12.184;2023-06-10T04:35:32;0.83;;;0.83;;
2892;SDS011;1456;51.840;12.184;2023-06-10T04:37:58;0.70;;;0.70;;
2892;SDS011;1456;51.840;12.184;2023-06-10T04:40:24;1.10;;;1.10;;
2892;SDS011;1456;51.840;12.184;2023-06-10T04:42:50;0.60;;;0.60;;
2892;SDS011;1456;51.840;12.184;2023-06-10T04:45:16;4.33;;;2.53;;
2892;SDS011;1456;51.840;12.184;2023-06-10T04:47:42;0.77;;;0.70;;
2892;SDS011;1456;51.840;12.184;2023-06-10T04:50:14;2.23;;;1.47;;
2892;SDS011;1456;51.840;12.184;2023-06-10T04:52:40;0.97;;;0.97;;
2892;SDS011;1456;51.840;12.184;2023-06-10T04:55:06;1.47;;;1.40;;
2892;SDS011;1456;51.840;12.184;2023-06-10T04:57:33;2.30;;;1.47;;
2892;SDS011;1456;51.840;12.184;2023-06-10T04:59:58;2.70;;;2.00;;
2892;SDS011;1456;51.840;12.184;2023-06-10T05:02:25;3.83;;;3.57;;
2892;SDS011;1456;51.840;12.184;2023-06-10T05:04:51;0.70;;;0.70;;
2892;SDS011;1456;51.840;12.184;2023-06-10T05:07:18;1.57;;;1.50;;
2892;SDS011;1456;51.840;12.184;2023-06-10T05:09:44;0.73;;;0.60;;
2892;SDS011;1456;51.840;12.184;2023-06-10T05:12:10;1.00;;;1.00;;
2892;SDS011;1456;51.840;12.184;2023-06-10T05:14:35;0.70;;;0.67;;
2892;SDS011;1456;51.840;12.184;2023-06-10T05:17:01;0.60;;;0.60;;
2892;SDS011;1456;51.840;12.184;2023-06-10T05:19:27;0.90;;;0.90;;
2892;SDS011;1456;51.840;12.184;2023-06-10T05:21:53;2.13;;;2.03;;
2892;SDS011;1456;51.840;12.184;2023-06-10T05:24:19;2.00;;;1.00;;
2892;SDS011;1456;51.840;12.184;2023-06-10T05:26:44;2.10;;;1.90;;
2892;SDS011;1456;51.840;12.184;2023-06-10T05:29:10;3.83;;;2.07;;
2892;SDS011;1456;51.840;12.184;2023-06-10T05:31:36;1.37;;;0.93;;
2892;SDS011;1456;51.840;12.184;2023-06-10T05:34:02;1.90;;;0.90;;
2892;SDS011;1456;51.840;12.184;2023-06-10T05:36:28;1.47;;;1.30;;
2892;SDS011;1456;51.840;12.184;2023-06-10T05:38:54;1.00;;;0.90;;
2892;SDS011;1456;51.840;12.184;2023-06-10T05:41:20;1.20;;;1.17;;
2892;SDS011;1456;51.840;12.184;2023-06-10T05:43:47;1.53;;;1.07;;
2892;SDS011;1456;51.840;12.184;2023-06-10T05:46:14;1.50;;;1.40;;
2892;SDS011;1456;51.840;12.184;2023-06-10T05:48:39;1.53;;;1.03;;
2892;SDS011;1456;51.840;12.184;2023-06-10T05:51:05;0.60;;;0.60;;
2892;SDS011;1456;51.840;12.184;2023-06-10T05:53:31;1.50;;;1.03;;
2892;SDS011;1456;51.840;12.184;2023-06-10T05:55:57;0.80;;;0.80;;
2892;SDS011;1456;51.840;12.184;2023-06-10T05:58:23;1.10;;;0.90;;
2892;SDS011;1456;51.840;12.184;2023-06-10T06:00:49;1.30;;;1.20;;
2892;SDS011;1456;51.840;12.184;2023-06-10T06:03:15;1.50;;;1.40;;
2892;SDS011;1456;51.840;12.184;2023-06-10T06:05:41;0.80;;;0.80;;
2892;SDS011;1456;51.840;12.184;2023-06-10T06:08:07;1.63;;;1.53;;
2892;SDS011;1456;51.840;12.184;2023-06-10T06:10:33;1.80;;;1.70;;
2892;SDS011;1456;51.840;12.184;2023-06-10T06:12:59;1.53;;;1.43;;
2892;SDS011;1456;51.840;12.184;2023-06-10T06:15:25;1.73;;;1.63;;
2892;SDS011;1456;51.840;12.184;2023-06-10T06:17:52;1.83;;;1.73;;
2892;SDS011;1456;51.840;12.184;2023-06-10T06:20:19;1.87;;;1.87;;
2892;SDS011;1456;51.840;12.184;2023-06-10T06:22:45;1.30;;;1.30;;
2892;SDS011;1456;51.840;12.184;2023-06-10T06:25:10;2.27;;;1.67;;
2892;SDS011;1456;51.840;12.184;2023-06-10T06:27:36;1.33;;;1.23;;
2892;SDS011;1456;51.840;12.184;2023-06-10T06:30:02;1.73;;;1.67;;
2892;SDS011;1456;51.840;12.184;2023-06-10T06:32:28;1.70;;;1.67;;
2892;SDS011;1456;51.840;12.184;2023-06-10T06:34:54;1.47;;;1.47;;
2892;SDS011;1456;51.840;12.184;2023-06-10T06:37:23;2.30;;;2.20;;
2892;SDS011;1456;51.840;12.184;2023-06-10T06:39:52;2.30;;;1.80;;
2892;SDS011;1456;51.840;12.184;2023-06-10T06:42:20;3.53;;;1.80;;
2892;SDS011;1456;51.840;12.184;2023-06-10T06:44:46;2.07;;;1.27;;
2892;SDS011;1456;51.840;12.184;2023-06-10T06:47:12;1.40;;;1.40;;
2892;SDS011;1456;51.840;12.184;2023-06-10T06:49:38;2.63;;;2.53;;
2892;SDS011;1456;51.840;12.184;2023-06-10T06:52:04;2.23;;;2.23;;
2892;SDS011;1456;51.840;12.184;2023-06-10T06:54:30;2.57;;;2.47;;
2892;SDS011;1456;51.840;12.184;2023-06-10T06:56:56;2.93;;;2.87;;
2892;SDS011;1456;51.840;12.184;2023-06-10T06:59:22;2.10;;;2.10;;
2892;SDS011;1456;51.840;12.184;2023-06-10T07:01:48;2.67;;;2.47;;
2892;SDS011;1456;51.840;12.184;2023-06-10T07:04:15;4.53;;;2.37;;
2892;SDS011;1456;51.840;12.184;2023-06-10T07:06:43;3.97;;;3.87;;
2892;SDS011;1456;51.840;12.184;2023-06-10T07:09:08;2.70;;;2.70;;
2892;SDS011;1456;51.840;12.184;2023-06-10T07:11:34;2.70;;;2.60;;
2892;SDS011;1456;51.840;12.184;2023-06-10T07:14:00;4.73;;;4.63;;
2892;SDS011;1456;51.840;12.184;2023-06-10T07:16:26;5.00;;;4.90;;
2892;SDS011;1456;51.840;12.184;2023-06-10T07:18:52;4.70;;;4.50;;
2892;SDS011;1456;51.840;12.184;2023-06-10T07:21:18;6.00;;;5.70;;
2892;SDS011;1456;51.840;12.184;2023-06-10T07:23:44;2.73;;;2.70;;
2892;SDS011;1456;51.840;12.184;2023-06-10T07:26:13;3.10;;;3.00;;
2892;SDS011;1456;51.840;12.184;2023-06-10T07:28:39;3.83;;;3.73;;
2892;SDS011;1456;51.840;12.184;2023-06-10T07:31:05;4.00;;;3.97;;
2892;SDS011;1456;51.840;12.184;2023-06-10T07:33:31;3.67;;;3.57;;
2892;SDS011;1456;51.840;12.184;2023-06-10T07:35:57;4.80;;;4.60;;
2892;SDS011;1456;51.840;12.184;2023-06-10T07:38:24;4.03;;;3.93;;
2892;SDS011;1456;51.840;12.184;2023-06-10T07:40:51;4.33;;;4.13;;
2892;SDS011;1456;51.840;12.184;2023-06-10T07:43:17;5.57;;;5.37;;
2892;SDS011;1456;51.840;12.184;2023-06-10T07:45:43;4.70;;;4.50;;
2892;SDS011;1456;51.840;12.184;2023-06-10T07:48:09;5.17;;;5.07;;
2892;SDS011;1456;51.840;12.184;2023-06-10T07:50:35;5.57;;;5.40;;
2892;SDS011;1456;51.840;12.184;2023-06-10T07:53:01;4.73;;;4.63;;
2892;SDS011;1456;51.840;12.184;2023-06-10T07:55:28;4.47;;;4.30;;
2892;SDS011;1456;51.840;12.184;2023-06-10T07:57:54;5.57;;;5.40;;
2892;SDS011;1456;51.840;12.184;2023-06-10T08:00:20;4.90;;;4.70;;
2892;SDS011;1456;51.840;12.184;2023-06-10T08:02:46;6.03;;;5.70;;
2892;SDS011;1456;51.840;12.184;2023-06-10T08:05:12;5.50;;;5.30;;
2892;SDS011;1456;51.840;12.184;2023-06-10T08:07:39;5.37;;;5.23;;
2892;SDS011;1456;51.840;12.184;2023-06-10T08:10:06;5.30;;;5.20;;
2892;SDS011;1456;51.840;12.184;2023-06-10T08:12:33;7.30;;;7.10;;
2892;SDS011;1456;51.840;12.184;2023-06-10T08:15:00;6.60;;;6.30;;
2892;SDS011;1456;51.840;12.184;2023-06-10T08:17:29;5.80;;;5.70;;
2892;SDS011;1456;51.840;12.184;2023-06-10T08:19:55;6.53;;;6.43;;
2892;SDS011;1456;51.840;12.184;2023-06-10T08:22:21;6.53;;;6.37;;
2892;SDS011;1456;51.840;12.184;2023-06-10T08:24:47;6.33;;;6.13;;
2892;SDS011;1456;51.840;12.184;2023-06-10T08:27:13;6.40;;;6.20;;
2892;SDS011;1456;51.840;12.184;2023-06-10T08:29:39;7.07;;;6.87;;
2892;SDS011;1456;51.840;12.184;2023-06-10T08:32:10;7.00;;;6.70;;
2892;SDS011;1456;51.840;12.184;2023-06-10T08:34:37;8.20;;;7.90;;
2892;SDS011;1456;51.840;12.184;2023-06-10T08:37:03;9.43;;;8.73;;
2892;SDS011;1456;51.840;12.184;2023-06-10T08:39:29;8.23;;;8.03;;
2892;SDS011;1456;51.840;12.184;2023-06-10T08:42:10;8.27;;;8.00;;
2892;SDS011;1456;51.840;12.184;2023-06-10T08:44:48;7.80;;;7.60;;
2892;SDS011;1456;51.840;12.184;2023-06-10T08:47:20;8.70;;;8.17;;
2892;SDS011;1456;51.840;12.184;2023-06-10T08:49:49;9.10;;;8.80;;
2892;SDS011;1456;51.840;12.184;2023-06-10T08:52:18;7.90;;;7.67;;
2892;SDS011;1456;51.840;12.184;2023-06-10T08:54:49;8.40;;;8.20;;
2892;SDS011;1456;51.840;12.184;2023-06-10T08:57:20;8.60;;;8.40;;
2892;SDS011;1456;51.840;12.184;2023-06-10T08:59:47;8.80;;;8.50;;
2892;SDS011;1456;51.840;12.184;2023-06-10T09:02:15;9.57;;;9.07;;
2892;SDS011;1456;51.840;12.184;2023-06-10T09:04:44;8.43;;;8.23;;
2892;SDS011;1456;51.840;12.184;2023-06-10T09:07:12;8.73;;;8.47;;
2892;SDS011;1456;51.840;12.184;2023-06-10T09:09:41;8.03;;;7.77;;
2892;SDS011;1456;51.840;12.184;2023-06-10T09:12:08;9.87;;;9.47;;
2892;SDS011;1456;51.840;12.184;2023-06-10T09:14:34;11.07;;;10.50;;
2892;SDS011;1456;51.840;12.184;2023-06-10T09:17:01;9.53;;;9.27;;
2892;SDS011;1456;51.840;12.184;2023-06-10T09:19:27;7.40;;;7.20;;
2892;SDS011;1456;51.840;12.184;2023-06-10T09:21:54;10.20;;;9.90;;
2892;SDS011;1456;51.840;12.184;2023-06-10T09:24:21;9.27;;;9.00;;
2892;SDS011;1456;51.840;12.184;2023-06-10T09:26:48;8.80;;;8.40;;
2892;SDS011;1456;51.840;12.184;2023-06-10T09:29:14;9.00;;;8.80;;
2892;SDS011;1456;51.840;12.184;2023-06-10T09:31:40;9.47;;;9.07;;
2892;SDS011;1456;51.840;12.184;2023-06-10T09:36:39;10.07;;;9.70;;
2892;SDS011;1456;51.840;12.184;2023-06-10T09:39:13;15.10;;;14.60;;
2892;SDS011;1456;51.840;12.184;2023-06-10T09:41:41;15.20;;;14.70;;
2892;SDS011;1456;51.840;12.184;2023-06-10T09:46:44;12.27;;;11.83;;
2892;SDS011;1456;51.840;12.184;2023-06-10T09:49:11;10.27;;;9.97;;
2892;SDS011;1456;51.840;12.184;2023-06-10T09:51:37;10.73;;;10.40;;
2892;SDS011;1456;51.840;12.184;2023-06-10T09:54:13;10.63;;;10.33;;
2892;SDS011;1456;51.840;12.184;2023-06-10T09:56:39;12.53;;;12.13;;
2892;SDS011;1456;51.840;12.184;2023-06-10T09:59:07;11.80;;;11.40;;
2892;SDS011;1456;51.840;12.184;2023-06-10T10:01:33;12.30;;;12.00;;
2892;SDS011;1456;51.840;12.184;2023-06-10T10:03:59;15.60;;;15.20;;
2892;SDS011;1456;51.840;12.184;2023-06-10T10:06:26;16.37;;;15.77;;
2892;SDS011;1456;51.840;12.184;2023-06-10T10:08:53;16.20;;;15.70;;
2892;SDS011;1456;51.840;12.184;2023-06-10T10:11:20;15.13;;;14.67;;
2892;SDS011;1456;51.840;12.184;2023-06-10T10:13:48;15.47;;;14.80;;
2892;SDS011;1456;51.840;12.184;2023-06-10T10:16:27;14.43;;;14.03;;
2892;SDS011;1456;51.840;12.184;2023-06-10T10:19:07;11.97;;;11.67;;
2892;SDS011;1456;51.840;12.184;2023-06-10T10:21:40;12.63;;;12.30;;
2892;SDS011;1456;51.840;12.184;2023-06-10T10:24:12;17.20;;;16.60;;
2892;SDS011;1456;51.840;12.184;2023-06-10T10:26:45;16.57;;;16.07;;
2892;SDS011;1456;51.840;12.184;2023-06-10T10:29:24;14.93;;;14.53;;
2892;SDS011;1456;51.840;12.184;2023-06-10T10:32:07;21.93;;;15.33;;
2892;SDS011;1456;51.840;12.184;2023-06-10T10:37:13;14.70;;;14.10;;
2892;SDS011;1456;51.840;12.184;2023-06-10T10:39:40;14.03;;;13.67;;
2892;SDS011;1456;51.840;12.184;2023-06-10T10:42:06;17.77;;;17.17;;
2892;SDS011;1456;51.840;12.184;2023-06-10T10:44:36;15.93;;;15.33;;
2892;SDS011;1456;51.840;12.184;2023-06-10T10:47:03;16.70;;;16.30;;
2892;SDS011;1456;51.840;12.184;2023-06-10T10:49:33;16.23;;;15.83;;
2892;SDS011;1456;51.840;12.184;2023-06-10T10:52:02;19.03;;;18.43;;
2892;SDS011;1456;51.840;12.184;2023-06-10T11:02:32;11.90;;;11.60;;
2892;SDS011;1456;51.840;12.184;2023-06-10T11:05:10;11.90;;;11.60;;
2892;SDS011;1456;51.840;12.184;2023-06-10T11:07:39;12.20;;;11.80;;
2892;SDS011;1456;51.840;12.184;2023-06-10T11:10:09;12.47;;;12.07;;
2892;SDS011;1456;51.840;12.184;2023-06-10T11:15:10;14.10;;;13.57;;
2892;SDS011;1456;51.840;12.184;2023-06-10T11:18:06;12.70;;;12.00;;
2892;SDS011;1456;51.840;12.184;2023-06-10T11:26:09;13.50;;;12.90;;
2892;SDS011;1456;51.840;12.184;2023-06-10T11:28:38;13.00;;;12.53;;
2892;SDS011;1456;51.840;12.184;2023-06-10T11:31:05;12.87;;;12.27;;
2892;SDS011;1456;51.840;12.184;2023-06-10T11:33:31;14.53;;;13.60;;
2892;SDS011;1456;51.840;12.184;2023-06-10T11:35:57;12.90;;;12.60;;
2892;SDS011;1456;51.840;12.184;2023-06-10T11:38:24;13.10;;;12.70;;
2892;SDS011;1456;51.840;12.184;2023-06-10T11:40:50;12.70;;;12.30;;
2892;SDS011;1456;51.840;12.184;2023-06-10T11:43:18;12.50;;;12.10;;
2892;SDS011;1456;51.840;12.184;2023-06-10T11:45:45;12.73;;;12.33;;
2892;SDS011;1456;51.840;12.184;2023-06-10T11:48:11;13.97;;;13.47;;
2892;SDS011;1456;51.840;12.184;2023-06-10T11:50:37;13.00;;;12.50;;
2892;SDS011;1456;51.840;12.184;2023-06-10T11:53:04;13.10;;;12.50;;
2892;SDS011;1456;51.840;12.184;2023-06-10T11:55:46;13.00;;;12.60;;
2892;SDS011;1456;51.840;12.184;2023-06-10T11:58:16;11.70;;;11.40;;
2892;SDS011;1456;51.840;12.184;2023-06-10T12:03:19;13.00;;;12.60;;
2892;SDS011;1456;51.840;12.184;2023-06-10T12:06:01;12.80;;;12.50;;
2892;SDS011;1456;51.840;12.184;2023-06-10T12:08:29;12.27;;;11.87;;
2892;SDS011;1456;51.840;12.184;2023-06-10T12:10:55;12.60;;;12.20;;
2892;SDS011;1456;51.840;12.184;2023-06-10T12:13:22;12.43;;;12.03;;
2892;SDS011;1456;51.840;12.184;2023-06-10T12:15:51;12.90;;;12.30;;
2892;SDS011;1456;51.840;12.184;2023-06-10T12:18:20;13.17;;;12.57;;
2892;SDS011;1456;51.840;12.184;2023-06-10T12:20:51;13.20;;;12.80;;
2892;SDS011;1456;51.840;12.184;2023-06-10T12:23:17;20.10;;;19.50;;
2892;SDS011;1456;51.840;12.184;2023-06-10T12:25:50;20.10;;;19.50;;
2892;SDS011;1456;51.840;12.184;2023-06-10T12:28:23;19.93;;;19.33;;
2892;SDS011;1456;51.840;12.184;2023-06-10T12:30:51;17.60;;;17.20;;
2892;SDS011;1456;51.840;12.184;2023-06-10T12:33:30;19.70;;;19.10;;
2892;SDS011;1456;51.840;12.184;2023-06-10T12:35:56;18.13;;;17.57;;
2892;SDS011;1456;51.840;12.184;2023-06-10T12:38:22;19.43;;;18.60;;
2892;SDS011;1456;51.840;12.184;2023-06-10T12:41:04;17.60;;;16.97;;
2892;SDS011;1456;51.840;12.184;2023-06-10T12:43:30;19.77;;;19.07;;
2892;SDS011;1456;51.840;12.184;2023-06-10T12:46:07;18.37;;;17.77;;
2892;SDS011;1456;51.840;12.184;2023-06-10T12:48:36;18.97;;;18.07;;
2892;SDS011;1456;51.840;12.184;2023-06-10T12:51:16;18.83;;;18.33;;
2892;SDS011;1456;51.840;12.184;2023-06-10T12:53:42;18.37;;;17.87;;
2892;SDS011;1456;51.840;12.184;2023-06-10T12:56:08;20.57;;;19.87;;
2892;SDS011;1456;51.840;12.184;2023-06-10T12:58:34;19.93;;;19.33;;
2892;SDS011;1456;51.840;12.184;2023-06-10T13:01:01;21.27;;;20.67;;
2892;SDS011;1456;51.840;12.184;2023-06-10T13:03:26;20.80;;;20.10;;
2892;SDS011;1456;51.840;12.184;2023-06-10T13:05:52;21.67;;;20.97;;
2892;SDS011;1456;51.840;12.184;2023-06-10T13:08:18;22.77;;;22.07;;
2892;SDS011;1456;51.840;12.184;2023-06-10T13:10:43;21.37;;;20.37;;
2892;SDS011;1456;51.840;12.184;2023-06-10T13:13:10;20.50;;;19.90;;
2892;SDS011;1456;51.840;12.184;2023-06-10T13:15:36;21.10;;;20.40;;
2892;SDS011;1456;51.840;12.184;2023-06-10T13:18:05;23.50;;;22.70;;
2892;SDS011;1456;51.840;12.184;2023-06-10T13:20:30;22.97;;;22.27;;
2892;SDS011;1456;51.840;12.184;2023-06-10T13:22:57;23.50;;;22.70;;
2892;SDS011;1456;51.840;12.184;2023-06-10T13:25:25;21.50;;;20.80;;
2892;SDS011;1456;51.840;12.184;2023-06-10T13:27:50;20.23;;;19.30;;
2892;SDS011;1456;51.840;12.184;2023-06-10T13:30:16;22.20;;;21.37;;
2892;SDS011;1456;51.840;12.184;2023-06-10T13:32:46;18.70;;;18.20;;
2892;SDS011;1456;51.840;12.184;2023-06-10T13:35:11;19.93;;;19.23;;
2892;SDS011;1456;51.840;12.184;2023-06-10T13:37:37;18.43;;;17.93;;
2892;SDS011;1456;51.840;12.184;2023-06-10T13:40:03;18.47;;;17.87;;
2892;SDS011;1456;51.840;12.184;2023-06-10T13:42:32;19.77;;;19.17;;
2892;SDS011;1456;51.840;12.184;2023-06-10T13:44:58;19.97;;;19.43;;
2892;SDS011;1456;51.840;12.184;2023-06-10T13:47:25;10.43;;;10.23;;
2892;SDS011;1456;51.840;12.184;2023-06-10T13:49:50;18.20;;;17.60;;
2892;SDS011;1456;51.840;12.184;2023-06-10T13:52:16;16.87;;;16.37;;
2892;SDS011;1456;51.840;12.184;2023-06-10T13:54:43;11.90;;;11.57;;
2892;SDS011;1456;51.840;12.184;2023-06-10T13:57:08;12.10;;;11.70;;
2892;SDS011;1456;51.840;12.184;2023-06-10T13:59:35;12.40;;;12.03;;
2892;SDS011;1456;51.840;12.184;2023-06-10T14:02:03;11.67;;;11.27;;
2892;SDS011;1456;51.840;12.184;2023-06-10T14:04:29;11.80;;;11.47;;
2892;SDS011;1456;51.840;12.184;2023-06-10T14:06:55;11.00;;;10.70;;
2892;SDS011;1456;51.840;12.184;2023-06-10T14:09:22;11.10;;;10.80;;
2892;SDS011;1456;51.840;12.184;2023-06-10T14:11:48;10.90;;;10.70;;
2892;SDS011;1456;51.840;12.184;2023-06-10T14:14:14;12.03;;;11.70;;
2892;SDS011;1456;51.840;12.184;2023-06-10T14:16:40;11.50;;;11.20;;
2892;SDS011;1456;51.840;12.184;2023-06-10T14:19:05;12.00;;;11.70;;
2892;SDS011;1456;51.840;12.184;2023-06-10T14:21:31;11.90;;;11.60;;
2892;SDS011;1456;51.840;12.184;2023-06-10T14:23:57;12.20;;;11.90;;
2892;SDS011;1456;51.840;12.184;2023-06-10T14:26:23;12.20;;;11.90;;
2892;SDS011;1456;51.840;12.184;2023-06-10T14:28:49;12.43;;;12.03;;
2892;SDS011;1456;51.840;12.184;2023-06-10T14:31:15;10.63;;;10.43;;
2892;SDS011;1456;51.840;12.184;2023-06-10T14:33:41;12.80;;;12.40;;
2892;SDS011;1456;51.840;12.184;2023-06-10T14:36:08;13.43;;;12.33;;
2892;SDS011;1456;51.840;12.184;2023-06-10T14:38:35;13.87;;;13.40;;
2892;SDS011;1456;51.840;12.184;2023-06-10T14:41:00;11.73;;;11.33;;
2892;SDS011;1456;51.840;12.184;2023-06-10T14:43:27;12.30;;;11.90;;
2892;SDS011;1456;51.840;12.184;2023-06-10T14:45:53;11.70;;;11.27;;
2892;SDS011;1456;51.840;12.184;2023-06-10T14:48:20;12.60;;;12.10;;
2892;SDS011;1456;51.840;12.184;2023-06-10T14:50:46;12.47;;;12.07;;
2892;SDS011;1456;51.840;12.184;2023-06-10T14:53:15;11.30;;;11.00;;
2892;SDS011;1456;51.840;12.184;2023-06-10T14:55:42;13.50;;;12.83;;
2892;SDS011;1456;51.840;12.184;2023-06-10T14:58:08;12.13;;;11.80;;
2892;SDS011;1456;51.840;12.184;2023-06-10T15:00:33;11.73;;;11.43;;
2892;SDS011;1456;51.840;12.184;2023-06-10T15:02:59;11.53;;;11.23;;
2892;SDS011;1456;51.840;12.184;2023-06-10T15:05:25;12.40;;;11.90;;
2892;SDS011;1456;51.840;12.184;2023-06-10T15:07:50;12.67;;;12.33;;
2892;SDS011;1456;51.840;12.184;2023-06-10T15:10:16;13.47;;;12.97;;
2892;SDS011;1456;51.840;12.184;2023-06-10T15:12:43;12.33;;;11.93;;
2892;SDS011;1456;51.840;12.184;2023-06-10T15:15:08;11.33;;;11.07;;
2892;SDS011;1456;51.840;12.184;2023-06-10T15:17:35;12.20;;;11.80;;
2892;SDS011;1456;51.840;12.184;2023-06-10T15:20:02;12.93;;;12.53;;
2892;SDS011;1456;51.840;12.184;2023-06-10T15:24:59;11.30;;;11.03;;